createdAt,value
2023-05-05T00:02:07.585Z,11.07
2023-05-05T00:05:20.665Z,10.02
2023-05-05T00:08:33.321Z,8.77
2023-05-05T00:11:45.953Z,9.45
2023-05-05T00:14:58.299Z,7.95
2023-05-05T00:18:11.216Z,9.15
2023-05-05T00:21:23.546Z,10.20
2023-05-05T00:24:36.207Z,10.20
2023-05-05T00:27:48.537Z,14.40
2023-05-05T00:31:01.704Z,7.90
2023-05-05T00:34:14.169Z,7.43
2023-05-05T00:37:27.158Z,8.65
2023-05-05T00:40:39.619Z,11.10
2023-05-05T00:43:52.674Z,9.82
2023-05-05T00:47:05.381Z,9.57
2023-05-05T00:50:23.958Z,12.57
2023-05-05T00:53:36.401Z,8.20
2023-05-05T00:56:50.859Z,9.02
2023-05-05T01:00:03.683Z,7.80
2023-05-05T01:03:17.027Z,7.87
2023-05-05T01:06:35.273Z,8.27
2023-05-05T01:10:18.908Z,9.00
2023-05-05T01:13:43.284Z,10.60
2023-05-05T01:17:00.170Z,9.07
2023-05-05T01:20:23.932Z,8.50
2023-05-05T01:23:58.370Z,10.07
2023-05-05T01:27:35.348Z,10.82
2023-05-05T01:31:23.606Z,8.80
2023-05-05T01:34:57.635Z,10.82
2023-05-05T01:38:38.118Z,8.15
2023-05-05T01:41:51.253Z,10.20
2023-05-05T01:45:04.706Z,10.23
2023-05-05T01:48:17.570Z,10.23
2023-05-05T01:51:30.243Z,9.07
2023-05-05T01:54:43.321Z,8.07
2023-05-05T01:57:56.096Z,10.23
2023-05-05T02:01:08.949Z,8.27
2023-05-05T02:04:22.905Z,10.05
2023-05-05T02:07:35.298Z,11.10
2023-05-05T02:10:47.953Z,11.18
2023-05-05T02:14:00.366Z,8.07
2023-05-05T02:17:13.288Z,9.85
2023-05-05T02:20:25.858Z,12.68
2023-05-05T02:23:39.480Z,7.78
2023-05-05T02:26:52.294Z,9.80
2023-05-05T02:30:07.563Z,11.02
2023-05-05T02:33:20.220Z,8.80
2023-05-05T02:36:34.041Z,9.93
2023-05-05T02:39:51.587Z,9.73
2023-05-05T02:43:06.573Z,11.40
2023-05-05T02:46:19.421Z,10.57
2023-05-05T02:49:32.547Z,9.40
2023-05-05T02:52:45.248Z,10.95
2023-05-05T02:56:22.437Z,15.52
2023-05-05T03:00:02.208Z,17.67
2023-05-05T03:04:03.157Z,15.55
2023-05-05T03:07:25.230Z,15.07
2023-05-05T03:10:48.046Z,19.62
2023-05-05T03:14:13.000Z,15.85
2023-05-05T03:17:26.187Z,11.20
2023-05-05T03:20:41.732Z,17.10
2023-05-05T03:23:54.584Z,16.92
2023-05-05T03:27:07.784Z,15.65
2023-05-05T03:30:20.960Z,11.15
2023-05-05T03:33:33.985Z,16.42
2023-05-05T03:36:46.978Z,15.45
2023-05-05T03:40:00.531Z,12.35
2023-05-05T03:43:13.767Z,14.82
2023-05-05T03:46:26.202Z,11.30
2023-05-05T03:49:39.319Z,15.35
2023-05-05T03:52:51.806Z,16.40
2023-05-05T03:56:04.703Z,13.25
2023-05-05T03:59:17.396Z,10.18
2023-05-05T04:02:30.447Z,12.93
2023-05-05T04:05:43.441Z,14.25
2023-05-05T04:08:55.933Z,12.37
2023-05-05T04:12:08.760Z,13.73
2023-05-05T04:15:21.237Z,14.10
2023-05-05T04:18:33.966Z,19.17
2023-05-05T04:21:46.423Z,24.85
2023-05-05T04:24:59.308Z,22.33
2023-05-05T04:28:11.999Z,21.62
2023-05-05T04:31:24.809Z,13.93
2023-05-05T04:34:37.317Z,14.68
2023-05-05T04:37:50.328Z,11.12
2023-05-05T04:41:08.840Z,13.77
2023-05-05T04:44:22.125Z,11.25
2023-05-05T04:47:41.525Z,13.52
2023-05-05T04:50:54.361Z,16.80
2023-05-05T04:54:07.472Z,15.15
2023-05-05T04:57:20.324Z,10.63
2023-05-05T05:00:32.872Z,18.73
2023-05-05T05:03:46.011Z,15.80
2023-05-05T05:06:59.369Z,12.27
2023-05-05T05:10:12.362Z,10.40
2023-05-05T05:13:24.846Z,12.50
2023-05-05T05:16:37.759Z,12.45
2023-05-05T05:19:51.135Z,13.77
2023-05-05T05:23:04.575Z,16.30
2023-05-05T05:26:17.696Z,12.93
2023-05-05T05:29:30.912Z,22.77
2023-05-05T05:32:43.727Z,13.30
2023-05-05T05:35:56.478Z,11.52
2023-05-05T05:39:09.073Z,14.40
2023-05-05T05:42:21.824Z,12.75
2023-05-05T05:45:34.686Z,14.05
2023-05-05T05:48:47.788Z,10.40
2023-05-05T05:52:00.218Z,10.00
2023-05-05T05:55:13.087Z,7.87
2023-05-05T05:58:26.021Z,8.50
2023-05-05T06:01:40.456Z,10.57
2023-05-05T06:04:53.451Z,8.13
2023-05-05T06:08:06.739Z,6.50
2023-05-05T06:11:20.573Z,8.27
2023-05-05T06:14:33.050Z,9.00
2023-05-05T06:17:45.911Z,8.13
2023-05-05T06:20:58.304Z,8.38
2023-05-05T06:24:12.073Z,9.02
2023-05-05T06:27:24.564Z,8.18
2023-05-05T06:30:37.203Z,10.15
2023-05-05T06:33:49.542Z,9.75
2023-05-05T06:37:02.291Z,8.27
2023-05-05T06:40:14.830Z,9.30
2023-05-05T06:43:28.506Z,8.13
2023-05-05T06:46:44.180Z,9.18
2023-05-05T06:49:57.646Z,19.92
2023-05-05T06:53:10.996Z,13.05
2023-05-05T06:56:24.027Z,12.20
2023-05-05T06:59:36.504Z,7.43
2023-05-05T07:02:49.292Z,7.50
2023-05-05T07:06:01.688Z,9.10
2023-05-05T07:09:16.940Z,8.73
2023-05-05T07:12:30.698Z,10.45
2023-05-05T07:15:46.806Z,7.70
2023-05-05T07:19:00.881Z,9.43
2023-05-05T07:22:13.605Z,10.13
2023-05-05T07:25:26.812Z,6.65
2023-05-05T07:28:39.490Z,8.90
2023-05-05T07:31:51.956Z,12.63
2023-05-05T07:35:05.978Z,11.07
2023-05-05T07:38:18.404Z,8.52
2023-05-05T07:41:31.130Z,8.50
2023-05-05T07:44:43.588Z,7.05
2023-05-05T07:47:56.504Z,10.82
2023-05-05T07:51:09.355Z,9.10
2023-05-05T07:54:22.129Z,18.45
2023-05-05T07:57:34.766Z,20.42
2023-05-05T08:00:47.977Z,18.20
2023-05-05T08:04:00.777Z,8.18
2023-05-05T08:07:13.147Z,14.18
2023-05-05T08:10:25.799Z,9.50
2023-05-05T08:13:39.223Z,9.57
2023-05-05T08:16:51.900Z,8.80
2023-05-05T08:20:04.565Z,8.98
2023-05-05T08:23:17.254Z,12.63
2023-05-05T08:26:29.677Z,8.55
2023-05-05T08:29:42.374Z,8.45
2023-05-05T08:32:55.196Z,11.40
2023-05-05T08:36:08.945Z,11.00
2023-05-05T08:39:21.331Z,10.10
2023-05-05T08:42:38.439Z,15.07
2023-05-05T08:45:54.293Z,8.40
2023-05-05T08:49:07.259Z,14.87
2023-05-05T08:52:24.301Z,14.73
2023-05-05T08:55:41.893Z,9.32
2023-05-05T08:58:54.549Z,10.35
2023-05-05T09:02:07.387Z,8.93
2023-05-05T09:05:19.998Z,9.63
2023-05-05T09:08:33.481Z,10.57
2023-05-05T09:11:45.818Z,9.90
2023-05-05T09:15:05.008Z,11.00
2023-05-05T09:18:17.417Z,10.98
2023-05-05T09:21:30.181Z,10.77
2023-05-05T09:24:54.623Z,14.40
2023-05-05T09:28:14.724Z,17.05
2023-05-05T09:31:27.529Z,12.00
2023-05-05T09:34:40.211Z,11.05
2023-05-05T09:37:52.584Z,16.75
2023-05-05T09:41:06.545Z,10.65
2023-05-05T09:44:32.480Z,12.55
2023-05-05T09:47:48.435Z,8.50
2023-05-05T09:51:00.827Z,10.05
2023-05-05T09:54:29.673Z,18.27
2023-05-05T09:57:42.128Z,8.13
2023-05-05T10:09:09.262Z,10.57
2023-05-05T10:12:23.868Z,12.37
2023-05-05T10:15:36.538Z,6.72
2023-05-05T10:18:50.643Z,6.57
2023-05-05T10:22:03.533Z,8.85
2023-05-05T10:25:16.260Z,9.23
2023-05-05T10:28:42.218Z,7.87
2023-05-05T10:31:54.974Z,8.85
2023-05-05T10:35:11.051Z,9.90
2023-05-05T10:38:24.794Z,7.35
2023-05-05T10:41:39.060Z,9.88
2023-05-05T10:44:53.851Z,7.32
2023-05-05T10:48:07.399Z,9.98
2023-05-05T10:51:47.227Z,12.15
2023-05-05T10:55:16.549Z,11.07
2023-05-05T10:58:55.435Z,5.90
2023-05-05T11:02:21.414Z,7.37
2023-05-05T11:05:34.037Z,9.32
2023-05-05T11:08:46.532Z,6.65
2023-05-05T11:12:06.284Z,7.25
2023-05-05T11:15:27.895Z,8.90
2023-05-05T11:18:43.382Z,8.40
2023-05-05T11:22:02.001Z,7.35
2023-05-05T11:25:37.068Z,10.23
2023-05-05T11:29:00.794Z,9.18
2023-05-05T11:32:16.528Z,6.40
2023-05-05T11:35:58.263Z,10.30
2023-05-05T11:39:41.135Z,7.35
2023-05-05T11:43:04.752Z,8.80
2023-05-05T11:46:17.448Z,11.07
2023-05-05T11:49:34.271Z,7.10
2023-05-05T11:52:47.375Z,8.23
2023-05-05T11:56:09.258Z,6.45
2023-05-05T11:59:23.014Z,8.65
2023-05-05T12:02:36.112Z,5.50
2023-05-05T12:05:48.864Z,8.07
2023-05-05T12:09:01.358Z,7.25
2023-05-05T12:12:14.565Z,8.52
2023-05-05T12:15:31.220Z,7.62
2023-05-05T12:18:43.952Z,7.25
2023-05-05T12:21:56.824Z,7.90
2023-05-05T12:25:09.880Z,9.10
2023-05-05T12:28:22.280Z,7.12
2023-05-05T12:31:38.623Z,10.77
2023-05-05T12:34:54.289Z,7.50
2023-05-05T12:38:07.022Z,7.50
2023-05-05T12:41:20.098Z,6.37
2023-05-05T12:44:38.869Z,7.68
2023-05-05T12:47:51.540Z,7.87
2023-05-05T12:51:20.861Z,6.87
2023-05-05T12:54:33.371Z,7.12
2023-05-05T12:58:07.169Z,6.50
2023-05-05T13:01:19.590Z,7.30
2023-05-05T13:04:32.732Z,6.18
2023-05-05T13:07:52.686Z,8.85
2023-05-05T13:11:05.378Z,10.48
2023-05-05T13:14:17.737Z,8.02
2023-05-05T13:17:31.103Z,6.68
2023-05-05T13:20:44.869Z,6.60
2023-05-05T13:24:08.213Z,5.45
2023-05-05T13:27:24.655Z,6.03
2023-05-05T13:30:37.297Z,7.60
2023-05-05T13:33:49.665Z,9.02
2023-05-05T13:37:02.285Z,6.10
2023-05-05T13:40:14.600Z,10.38
2023-05-05T13:43:27.216Z,6.78
2023-05-05T13:46:40.210Z,5.55
2023-05-05T13:49:52.953Z,11.45
2023-05-05T13:53:05.316Z,6.95
2023-05-05T13:56:19.161Z,6.53
2023-05-05T13:59:31.587Z,8.35
2023-05-05T14:02:44.301Z,11.70
2023-05-05T14:05:57.030Z,6.03
2023-05-05T14:09:09.369Z,8.23
2023-05-05T14:12:23.730Z,6.10
2023-05-05T14:15:36.854Z,6.45
2023-05-05T14:18:51.045Z,6.35
2023-05-05T14:22:03.471Z,6.72
2023-05-05T14:25:16.228Z,6.62
2023-05-05T14:28:28.621Z,5.78
2023-05-05T14:31:41.294Z,5.72
2023-05-05T14:34:55.371Z,6.62
2023-05-05T14:38:08.037Z,8.00
2023-05-05T14:41:20.519Z,8.25
2023-05-05T14:44:33.129Z,7.32
2023-05-05T14:47:45.486Z,7.25
2023-05-05T14:50:58.144Z,6.45
2023-05-05T14:54:24.164Z,6.32
2023-05-05T14:57:40.468Z,7.10
2023-05-05T15:00:52.921Z,9.15
2023-05-05T15:04:05.901Z,6.20
2023-05-05T15:07:18.244Z,6.85
2023-05-05T15:10:30.918Z,6.47
2023-05-05T15:13:43.263Z,7.57
2023-05-05T15:16:55.876Z,9.05
2023-05-05T15:20:08.632Z,5.00
2023-05-05T15:23:21.552Z,11.45
2023-05-05T15:26:33.994Z,8.35
2023-05-05T15:29:46.758Z,7.57
2023-05-05T15:32:59.105Z,5.93
2023-05-05T15:36:12.057Z,9.85
2023-05-05T15:39:24.443Z,6.80
2023-05-05T15:42:37.110Z,7.15
2023-05-05T15:45:49.505Z,6.97
2023-05-05T15:49:02.173Z,11.57
2023-05-05T15:52:14.560Z,7.07
2023-05-05T15:55:27.531Z,9.20
2023-05-05T15:58:43.823Z,5.25
2023-05-05T16:02:06.200Z,6.00
2023-05-05T16:05:26.933Z,6.90
2023-05-05T16:08:42.297Z,4.68
2023-05-05T16:11:55.302Z,5.82
2023-05-05T16:15:08.484Z,9.75
2023-05-05T16:18:21.334Z,9.43
2023-05-05T16:21:33.665Z,5.43
2023-05-05T16:24:46.975Z,8.23
2023-05-05T16:28:00.275Z,9.40
2023-05-05T16:31:13.560Z,7.97
2023-05-05T16:34:26.072Z,7.10
2023-05-05T16:37:38.700Z,5.20
2023-05-05T16:40:51.032Z,11.68
2023-05-05T16:44:03.748Z,6.37
2023-05-05T16:47:16.860Z,14.02
2023-05-05T16:50:29.561Z,8.35
2023-05-05T16:53:41.988Z,6.40
2023-05-05T16:56:55.025Z,6.28
2023-05-05T17:00:07.888Z,7.03
2023-05-05T17:03:20.630Z,5.87
2023-05-05T17:06:33.127Z,6.40
2023-05-05T17:09:45.812Z,15.93
2023-05-05T17:12:58.204Z,14.63
2023-05-05T17:16:10.923Z,10.63
2023-05-05T17:19:23.308Z,13.73
2023-05-05T17:22:36.342Z,11.80
2023-05-05T17:25:48.728Z,7.90
2023-05-05T17:29:01.446Z,10.05
2023-05-05T17:32:13.793Z,6.53
2023-05-05T17:35:26.792Z,8.20
2023-05-05T17:38:39.171Z,7.60
2023-05-05T17:41:51.761Z,8.20
2023-05-05T17:45:04.476Z,9.85
2023-05-05T17:48:17.104Z,12.25
2023-05-05T17:51:29.485Z,9.75
2023-05-05T17:54:46.139Z,11.40
2023-05-05T17:57:59.112Z,8.27
2023-05-05T18:01:20.556Z,12.52
2023-05-05T18:04:33.157Z,10.23
2023-05-05T18:07:45.659Z,10.63
2023-05-05T18:10:58.334Z,11.50
2023-05-05T18:14:13.588Z,10.23
2023-05-05T18:17:26.282Z,12.20
2023-05-05T18:20:38.635Z,44.58
2023-05-05T18:23:51.329Z,33.55
2023-05-05T18:27:05.389Z,39.22
2023-05-05T18:30:18.036Z,28.85
2023-05-05T18:33:30.459Z,25.58
2023-05-05T18:36:43.187Z,33.38
2023-05-05T18:39:55.717Z,27.25
2023-05-05T18:43:08.345Z,20.58
2023-05-05T18:46:20.832Z,15.13
2023-05-05T18:49:33.693Z,10.20
2023-05-05T18:52:46.000Z,8.25
2023-05-05T18:55:59.128Z,8.15
2023-05-05T18:59:11.813Z,9.20
2023-05-05T19:02:24.456Z,8.15
2023-05-05T19:05:36.858Z,9.10
2023-05-05T19:08:49.565Z,8.27
2023-05-05T19:12:02.975Z,8.43
2023-05-05T19:15:15.719Z,14.18
2023-05-05T19:18:28.025Z,8.25
2023-05-05T19:21:40.766Z,10.35
2023-05-05T19:24:53.136Z,12.40
2023-05-05T19:28:06.063Z,10.50
2023-05-05T19:31:18.463Z,11.93
2023-05-05T19:34:31.599Z,15.75
2023-05-05T19:37:44.008Z,20.88
2023-05-05T19:40:56.630Z,14.57
2023-05-05T19:44:09.032Z,14.85
2023-05-05T19:47:22.483Z,17.42
2023-05-05T19:50:34.898Z,16.10
2023-05-05T19:53:47.554Z,17.10
2023-05-05T19:57:00.799Z,19.23
2023-05-05T20:00:13.831Z,16.23
2023-05-05T20:03:26.586Z,17.83
2023-05-05T20:06:38.950Z,18.02
2023-05-05T20:09:51.583Z,22.30
2023-05-05T20:13:04.023Z,19.20
2023-05-05T20:16:16.924Z,20.08
2023-05-05T20:19:29.276Z,18.95
2023-05-05T20:22:41.908Z,20.92
2023-05-05T20:25:54.589Z,23.95
2023-05-05T20:29:07.310Z,25.10
2023-05-05T20:32:20.632Z,22.90
2023-05-05T20:35:33.291Z,31.58
2023-05-05T20:38:45.660Z,29.02
2023-05-05T20:41:58.255Z,29.33
2023-05-05T20:45:11.306Z,29.77
2023-05-05T20:48:23.974Z,25.20
2023-05-05T20:51:36.373Z,27.17
2023-05-05T20:54:49.014Z,22.10
2023-05-05T20:58:01.516Z,21.65
2023-05-05T21:01:14.220Z,17.50
2023-05-05T21:04:26.669Z,18.80
2023-05-05T21:07:39.311Z,18.35
2023-05-05T21:10:51.685Z,17.67
2023-05-05T21:14:04.942Z,20.10
2023-05-05T21:17:17.294Z,20.00
2023-05-05T21:20:29.911Z,26.67
2023-05-05T21:23:42.284Z,23.70
2023-05-05T21:26:56.378Z,22.02
2023-05-05T21:30:11.015Z,19.60
2023-05-05T21:33:24.028Z,21.95
2023-05-05T21:36:37.173Z,18.75
2023-05-05T21:39:49.840Z,25.55
2023-05-05T21:43:02.197Z,18.45
2023-05-05T21:46:17.205Z,18.45
2023-05-05T21:49:29.657Z,17.48
2023-05-05T21:52:42.298Z,26.80
2023-05-05T21:55:55.243Z,19.42
2023-05-05T21:59:07.841Z,19.92
2023-05-05T22:02:20.245Z,21.45
2023-05-05T22:05:32.969Z,18.85
2023-05-05T22:08:45.317Z,27.92
2023-05-05T22:11:58.017Z,25.90
2023-05-05T22:15:10.975Z,21.73
2023-05-05T22:18:23.902Z,21.67
2023-05-05T22:21:36.271Z,20.10
2023-05-05T22:24:49.035Z,24.20
2023-05-05T22:28:01.455Z,24.83
2023-05-05T22:31:14.150Z,27.08
2023-05-05T22:34:26.546Z,18.80
2023-05-05T22:37:39.173Z,23.85
2023-05-05T22:40:51.483Z,18.75
2023-05-05T22:44:04.160Z,19.90
2023-05-05T22:47:16.627Z,24.02
2023-05-05T22:50:29.312Z,21.50
2023-05-05T22:53:41.735Z,19.83
2023-05-05T22:56:54.411Z,21.55
2023-05-05T23:00:08.559Z,22.80
2023-05-05T23:03:21.170Z,22.98
2023-05-05T23:06:33.548Z,21.30
2023-05-05T23:09:46.865Z,24.48
2023-05-05T23:12:59.260Z,27.25
2023-05-05T23:16:11.913Z,29.27
2023-05-05T23:19:24.368Z,22.52
2023-05-05T23:22:37.259Z,21.87
2023-05-05T23:25:49.680Z,22.83
2023-05-05T23:29:02.369Z,22.77
2023-05-05T23:32:14.751Z,20.88
2023-05-05T23:35:28.040Z,18.70
2023-05-05T23:38:40.432Z,19.42
2023-05-05T23:41:53.044Z,19.50
2023-05-05T23:45:05.808Z,21.20
2023-05-05T23:48:18.480Z,16.83
2023-05-05T23:51:31.077Z,16.77
2023-05-05T23:54:44.722Z,20.08
2023-05-05T23:57:57.086Z,13.70
